createdAt,value
2023-05-14T00:01:55.395Z,12.20
2023-05-14T00:04:24.078Z,12.10
2023-05-14T00:06:52.151Z,12.20
2023-05-14T00:09:23.048Z,12.20
2023-05-14T00:11:51.258Z,12.10
2023-05-14T00:14:19.528Z,12.10
2023-05-14T00:16:48.888Z,12.10
2023-05-14T00:19:16.963Z,12.10
2023-05-14T00:21:45.242Z,12.00
2023-05-14T00:24:13.278Z,12.10
2023-05-14T00:26:41.360Z,12.10
2023-05-14T00:29:09.682Z,12.10
2023-05-14T00:31:37.829Z,12.00
2023-05-14T00:34:07.218Z,12.00
2023-05-14T00:36:35.331Z,12.00
2023-05-14T00:39:03.704Z,12.00
2023-05-14T00:41:31.760Z,12.00
2023-05-14T00:43:59.785Z,12.00
2023-05-14T00:46:28.293Z,11.90
2023-05-14T00:48:56.774Z,11.90
2023-05-14T00:51:26.641Z,11.80
2023-05-14T00:53:55.004Z,11.80
2023-05-14T00:56:23.316Z,11.80
2023-05-14T00:58:51.279Z,11.70
2023-05-14T01:01:19.351Z,11.50
2023-05-14T01:03:47.501Z,11.50
2023-05-14T01:06:23.406Z,11.40
2023-05-14T01:09:02.410Z,11.40
2023-05-14T01:11:33.254Z,11.20
2023-05-14T01:14:12.211Z,11.10
2023-05-14T01:16:41.355Z,11.10
2023-05-14T01:19:22.140Z,11.00
2023-05-14T01:21:51.482Z,10.90
2023-05-14T01:24:20.049Z,10.80
2023-05-14T01:26:48.121Z,10.70
2023-05-14T01:29:20.844Z,10.70
2023-05-14T01:31:51.733Z,10.60
2023-05-14T01:34:23.620Z,10.60
2023-05-14T01:36:54.458Z,10.50
2023-05-14T01:39:24.500Z,10.50
2023-05-14T01:41:53.508Z,10.40
2023-05-14T01:44:22.633Z,10.50
2023-05-14T01:46:50.697Z,10.50
2023-05-14T01:49:19.703Z,10.60
2023-05-14T01:51:47.746Z,10.50
2023-05-14T01:54:17.096Z,10.50
2023-05-14T01:56:45.055Z,10.40
2023-05-14T01:59:13.103Z,10.40
2023-05-14T02:01:41.158Z,10.30
2023-05-14T02:04:09.368Z,10.30
2023-05-14T02:06:37.335Z,10.30
2023-05-14T02:09:06.971Z,10.30
2023-05-14T02:11:36.276Z,10.30
2023-05-14T02:14:04.366Z,10.40
2023-05-14T02:16:32.408Z,10.30
2023-05-14T02:19:00.569Z,10.30
2023-05-14T02:21:28.636Z,10.30
2023-05-14T02:23:57.365Z,10.30
2023-05-14T02:26:25.603Z,10.30
2023-05-14T02:28:55.289Z,10.30
2023-05-14T02:31:23.316Z,10.40
2023-05-14T02:33:51.921Z,10.50
2023-05-14T02:36:19.923Z,10.50
2023-05-14T02:38:47.893Z,10.60
2023-05-14T02:41:15.956Z,10.70
2023-05-14T02:43:43.912Z,10.70
2023-05-14T02:46:13.264Z,10.70
2023-05-14T02:48:41.282Z,10.70
2023-05-14T02:51:09.398Z,10.80
2023-05-14T02:53:37.407Z,10.70
2023-05-14T02:56:05.949Z,10.70
2023-05-14T02:58:33.970Z,10.80
2023-05-14T03:01:02.034Z,10.70
2023-05-14T03:03:32.550Z,10.70
2023-05-14T03:06:01.038Z,10.70
2023-05-14T03:08:29.006Z,10.70
2023-05-14T03:10:56.975Z,10.70
2023-05-14T03:13:24.931Z,10.70
2023-05-14T03:15:55.072Z,10.80
2023-05-14T03:18:23.584Z,10.90
2023-05-14T03:20:52.875Z,10.90
2023-05-14T03:23:20.956Z,10.90
2023-05-14T03:25:48.961Z,10.90
2023-05-14T03:28:16.984Z,10.90
2023-05-14T03:30:45.505Z,10.90
2023-05-14T03:33:13.779Z,10.90
2023-05-14T03:35:41.753Z,10.90
2023-05-14T03:38:11.169Z,10.80
2023-05-14T03:40:39.163Z,10.80
2023-05-14T03:43:07.241Z,10.80
2023-05-14T03:45:36.059Z,10.80
2023-05-14T03:48:04.189Z,10.90
2023-05-14T03:50:35.464Z,10.90
2023-05-14T03:53:03.620Z,10.90
2023-05-14T03:55:33.029Z,10.80
2023-05-14T03:58:01.949Z,10.80
2023-05-14T04:00:30.341Z,10.90
2023-05-14T04:02:58.421Z,10.90
2023-05-14T04:05:26.521Z,10.90
2023-05-14T04:07:54.584Z,10.90
2023-05-14T04:10:22.855Z,10.90
2023-05-14T04:12:52.338Z,10.90
2023-05-14T04:15:20.332Z,10.80
2023-05-14T04:17:48.447Z,10.80
2023-05-14T04:20:16.512Z,10.80
2023-05-14T04:22:44.495Z,10.80
2023-05-14T04:25:12.557Z,10.90
2023-05-14T04:27:40.994Z,10.90
2023-05-14T04:30:11.635Z,11.00
2023-05-14T04:32:39.954Z,11.00
2023-05-14T04:35:10.043Z,11.10
2023-05-14T04:37:38.150Z,11.10
2023-05-14T04:40:08.008Z,11.10
2023-05-14T04:42:36.129Z,11.10
2023-05-14T04:45:05.147Z,11.10
2023-05-14T04:47:34.717Z,11.10
2023-05-14T04:50:02.899Z,11.20
2023-05-14T04:52:30.969Z,11.20
2023-05-14T04:54:59.218Z,11.10
2023-05-14T04:57:27.289Z,11.10
2023-05-14T04:59:55.330Z,11.10
2023-05-14T05:02:23.414Z,11.20
2023-05-14T05:04:52.809Z,11.30
2023-05-14T05:07:20.793Z,11.20
2023-05-14T05:09:48.815Z,11.20
2023-05-14T05:12:16.849Z,11.30
2023-05-14T05:14:44.962Z,11.30
2023-05-14T05:17:12.947Z,11.30
2023-05-14T05:19:44.032Z,11.30
2023-05-14T05:22:13.693Z,11.20
2023-05-14T05:24:41.770Z,11.20
2023-05-14T05:27:09.761Z,11.30
2023-05-14T05:29:38.158Z,11.40
2023-05-14T05:32:07.285Z,11.40
2023-05-14T05:34:35.765Z,11.30
2023-05-14T05:37:03.817Z,11.30
2023-05-14T05:39:35.012Z,11.40
2023-05-14T05:42:03.600Z,11.40
2023-05-14T05:44:31.753Z,11.40
2023-05-14T05:46:59.979Z,11.50
2023-05-14T05:49:28.385Z,11.50
2023-05-14T05:51:56.476Z,11.50
2023-05-14T05:54:25.692Z,11.60
2023-05-14T05:56:55.053Z,11.70
2023-05-14T05:59:23.065Z,11.70
2023-05-14T06:01:51.378Z,11.60
2023-05-14T06:04:20.235Z,11.60
2023-05-14T06:06:48.306Z,11.70
2023-05-14T06:09:16.385Z,11.80
2023-05-14T06:11:44.456Z,11.90
2023-05-14T06:14:13.903Z,11.90
2023-05-14T06:16:41.956Z,12.00
2023-05-14T06:19:10.154Z,12.30
2023-05-14T06:21:38.217Z,12.40
2023-05-14T06:24:06.934Z,12.60
2023-05-14T06:26:34.945Z,12.80
2023-05-14T06:29:02.963Z,12.70
2023-05-14T06:31:32.385Z,12.80
2023-05-14T06:34:00.425Z,12.90
2023-05-14T06:36:28.506Z,13.00
2023-05-14T06:38:56.503Z,13.10
2023-05-14T06:41:24.536Z,13.20
2023-05-14T06:43:52.565Z,13.30
2023-05-14T06:46:20.626Z,13.50
2023-05-14T06:48:50.141Z,13.60
2023-05-14T06:51:18.224Z,13.90
2023-05-14T06:53:46.800Z,13.90
2023-05-14T06:56:14.879Z,14.00
2023-05-14T06:58:42.931Z,14.10
2023-05-14T07:01:11.126Z,14.10
2023-05-14T07:03:39.196Z,14.20
2023-05-14T07:06:08.809Z,14.20
2023-05-14T07:08:37.083Z,14.20
2023-05-14T07:11:05.176Z,14.30
2023-05-14T07:13:33.350Z,14.10
2023-05-14T07:16:01.395Z,14.30
2023-05-14T07:18:29.452Z,14.50
2023-05-14T07:20:57.478Z,14.60
2023-05-14T07:23:26.807Z,14.30
2023-05-14T07:25:54.831Z,14.30
2023-05-14T07:28:22.825Z,14.50
2023-05-14T07:30:50.894Z,15.00
2023-05-14T07:33:18.971Z,15.20
2023-05-14T07:35:47.025Z,15.40
2023-05-14T07:38:15.319Z,15.50
2023-05-14T07:40:44.686Z,15.60
2023-05-14T07:43:12.795Z,15.60
2023-05-14T07:45:40.877Z,15.30
2023-05-14T07:48:09.098Z,15.30
2023-05-14T07:50:37.416Z,16.20
2023-05-14T07:53:05.464Z,16.80
2023-05-14T07:55:33.464Z,16.70
2023-05-14T07:58:02.846Z,17.30
2023-05-14T08:00:30.911Z,17.80
2023-05-14T08:02:59.111Z,18.30
2023-05-14T08:05:27.574Z,18.60
2023-05-14T08:07:55.674Z,19.70
2023-05-14T08:10:24.022Z,21.40
2023-05-14T08:12:52.226Z,22.60
2023-05-14T08:15:21.834Z,24.10
2023-05-14T08:17:49.953Z,24.50
2023-05-14T08:20:18.692Z,24.30
2023-05-14T08:22:46.719Z,24.60
2023-05-14T08:25:14.872Z,24.90
2023-05-14T08:27:42.860Z,22.90
2023-05-14T08:30:11.591Z,21.80
2023-05-14T08:32:40.983Z,21.00
2023-05-14T08:35:09.788Z,20.90
2023-05-14T08:37:37.810Z,19.50
2023-05-14T08:40:07.989Z,19.70
2023-05-14T08:42:36.988Z,19.80
2023-05-14T08:45:09.019Z,20.30
2023-05-14T08:47:37.671Z,20.40
2023-05-14T08:50:08.890Z,20.10
2023-05-14T08:52:37.057Z,21.20
2023-05-14T08:55:06.762Z,20.70
2023-05-14T08:57:35.787Z,21.20
2023-05-14T09:00:08.279Z,21.80
2023-05-14T09:02:37.720Z,22.20
2023-05-14T09:05:09.222Z,21.90
2023-05-14T09:07:37.437Z,21.60
2023-05-14T09:10:06.260Z,22.00
2023-05-14T09:12:34.282Z,23.20
2023-05-14T09:15:02.259Z,23.70
2023-05-14T09:17:30.430Z,23.00
2023-05-14T09:19:59.253Z,23.10
2023-05-14T09:22:32.172Z,23.20
2023-05-14T09:25:05.314Z,23.50
2023-05-14T09:27:36.146Z,23.50
2023-05-14T09:30:12.352Z,24.10
2023-05-14T09:32:43.774Z,23.90
2023-05-14T09:35:14.723Z,23.30
2023-05-14T09:37:45.063Z,24.80
2023-05-14T09:40:13.600Z,24.00
2023-05-14T09:42:41.997Z,22.30
2023-05-14T09:45:11.191Z,21.60
2023-05-14T09:47:40.245Z,21.20
2023-05-14T09:50:09.436Z,21.20
2023-05-14T09:52:37.934Z,22.70
2023-05-14T09:55:08.318Z,23.90
2023-05-14T09:57:36.708Z,24.20
2023-05-14T10:00:05.731Z,23.10
2023-05-14T10:02:38.783Z,22.40
2023-05-14T10:05:08.696Z,21.60
2023-05-14T10:07:41.612Z,20.70
2023-05-14T10:10:16.428Z,20.30
2023-05-14T10:12:47.458Z,20.20
2023-05-14T10:15:21.046Z,20.20
2023-05-14T10:17:52.254Z,20.30
2023-05-14T10:20:20.768Z,20.40
2023-05-14T10:22:49.036Z,20.20
2023-05-14T10:25:18.764Z,20.00
2023-05-14T10:27:46.932Z,19.80
2023-05-14T10:30:15.120Z,19.70
2023-05-14T10:32:44.276Z,19.50
2023-05-14T10:35:20.653Z,19.60
2023-05-14T10:37:51.713Z,20.00
2023-05-14T10:40:24.703Z,19.70
2023-05-14T10:42:53.836Z,20.80
2023-05-14T10:45:25.097Z,21.70
2023-05-14T10:47:53.209Z,22.30
2023-05-14T10:50:23.625Z,21.50
2023-05-14T10:52:53.140Z,22.20
2023-05-14T10:55:22.925Z,22.20
2023-05-14T10:57:51.072Z,22.70
2023-05-14T11:00:19.470Z,22.80
2023-05-14T11:02:47.728Z,22.40
2023-05-14T11:05:17.918Z,21.50
2023-05-14T11:07:48.722Z,21.00
2023-05-14T11:10:18.000Z,21.00
2023-05-14T11:12:49.302Z,20.10
2023-05-14T11:15:18.754Z,20.70
2023-05-14T11:17:48.352Z,20.80
2023-05-14T11:20:17.726Z,20.70
2023-05-14T11:22:47.272Z,20.30
2023-05-14T11:25:17.031Z,19.90
2023-05-14T11:27:48.379Z,19.80
2023-05-14T11:30:18.407Z,19.60
2023-05-14T11:32:48.122Z,19.40
2023-05-14T11:35:17.659Z,19.60
2023-05-14T11:37:51.284Z,20.80
2023-05-14T11:40:19.921Z,22.00
2023-05-14T11:42:53.226Z,23.20
2023-05-14T11:45:26.417Z,24.40
2023-05-14T11:47:54.811Z,23.70
2023-05-14T11:50:23.335Z,22.50
2023-05-14T11:52:51.575Z,21.70
2023-05-14T11:55:20.778Z,21.30
2023-05-14T11:57:50.340Z,20.40
2023-05-14T12:00:22.061Z,20.40
2023-05-14T12:02:50.599Z,20.50
2023-05-14T12:05:19.354Z,20.30
2023-05-14T12:07:47.981Z,20.70
2023-05-14T12:10:16.237Z,21.60
2023-05-14T12:12:48.025Z,22.70
2023-05-14T12:15:18.132Z,22.50
2023-05-14T12:17:51.700Z,22.30
2023-05-14T12:20:20.197Z,22.60
2023-05-14T12:22:48.404Z,22.30
2023-05-14T12:25:16.758Z,21.80
2023-05-14T12:27:46.343Z,22.20
2023-05-14T12:32:48.890Z,21.10
2023-05-14T12:35:17.255Z,22.60
2023-05-14T12:37:45.381Z,23.10
2023-05-14T12:40:13.871Z,23.30
2023-05-14T12:42:41.919Z,22.70
2023-05-14T12:45:10.372Z,22.20
2023-05-14T12:47:38.520Z,21.90
2023-05-14T12:50:09.177Z,21.60
2023-05-14T12:52:39.771Z,21.40
2023-05-14T12:55:09.176Z,21.70
2023-05-14T12:57:39.100Z,22.60
2023-05-14T13:00:12.916Z,23.90
2023-05-14T13:02:43.721Z,24.50
2023-05-14T13:05:13.508Z,24.20
2023-05-14T13:07:41.831Z,24.00
2023-05-14T13:10:11.384Z,24.40
2023-05-14T13:12:39.920Z,24.80
2023-05-14T13:15:11.073Z,24.60
2023-05-14T13:17:41.368Z,24.20
2023-05-14T13:20:10.563Z,24.10
2023-05-14T13:22:40.054Z,24.20
2023-05-14T13:25:09.251Z,24.70
2023-05-14T13:27:37.224Z,23.50
2023-05-14T13:30:10.279Z,23.10
2023-05-14T13:32:44.036Z,22.10
2023-05-14T13:35:14.042Z,21.50
2023-05-14T13:37:45.772Z,20.80
2023-05-14T13:40:14.480Z,19.70
2023-05-14T13:42:42.460Z,19.00
2023-05-14T13:45:11.860Z,18.50
2023-05-14T13:47:40.503Z,18.30
2023-05-14T13:50:09.474Z,18.40
2023-05-14T13:52:39.146Z,18.80
2023-05-14T13:55:11.718Z,19.20
2023-05-14T13:57:41.853Z,19.70
2023-05-14T14:00:11.094Z,19.70
2023-05-14T14:02:39.302Z,19.70
2023-05-14T14:05:10.972Z,19.50
2023-05-14T14:07:40.717Z,19.40
2023-05-14T14:10:11.360Z,19.40
2023-05-14T14:12:47.059Z,19.40
2023-05-14T14:15:15.963Z,19.70
2023-05-14T14:17:46.481Z,19.80
2023-05-14T14:20:17.024Z,20.00
2023-05-14T14:22:45.828Z,20.70
2023-05-14T14:25:15.324Z,20.60
2023-05-14T14:27:43.456Z,21.70
2023-05-14T14:30:16.802Z,22.80
2023-05-14T14:32:45.441Z,23.30
2023-05-14T14:35:18.324Z,23.90
2023-05-14T14:37:53.935Z,24.40
2023-05-14T14:40:26.352Z,23.70
2023-05-14T14:42:56.027Z,22.70
2023-05-14T14:45:24.466Z,21.90
2023-05-14T14:47:52.956Z,21.50
2023-05-14T14:50:21.128Z,21.50
2023-05-14T14:52:49.226Z,20.70
2023-05-14T14:55:19.917Z,20.60
2023-05-14T14:57:50.363Z,20.10
2023-05-14T15:00:20.652Z,20.30
2023-05-14T15:02:51.339Z,20.70
2023-05-14T15:05:21.894Z,21.20
2023-05-14T15:07:50.337Z,21.90
2023-05-14T15:10:18.662Z,22.40
2023-05-14T15:12:49.366Z,21.80
2023-05-14T15:15:19.065Z,21.40
2023-05-14T15:17:47.279Z,21.50
2023-05-14T15:20:15.501Z,21.60
2023-05-14T15:22:48.329Z,21.90
2023-05-14T15:25:16.387Z,22.80
2023-05-14T15:27:44.459Z,23.30
2023-05-14T15:30:13.974Z,22.80
2023-05-14T15:32:43.531Z,23.10
2023-05-14T15:35:14.438Z,23.40
2023-05-14T15:37:50.475Z,23.90
2023-05-14T15:40:20.386Z,23.30
2023-05-14T15:42:48.985Z,22.00
2023-05-14T15:45:17.300Z,20.90
2023-05-14T15:47:47.186Z,20.20
2023-05-14T15:50:15.161Z,19.50
2023-05-14T15:52:43.319Z,18.90
2023-05-14T15:55:12.123Z,18.30
2023-05-14T15:57:40.274Z,17.60
2023-05-14T16:00:16.654Z,17.00
2023-05-14T16:02:46.222Z,16.80
2023-05-14T16:05:18.725Z,16.60
2023-05-14T16:07:49.186Z,16.70
2023-05-14T16:10:17.245Z,16.70
2023-05-14T16:12:45.262Z,16.70
2023-05-14T16:15:13.311Z,16.60
2023-05-14T16:17:42.899Z,16.70
2023-05-14T16:20:13.585Z,16.80
2023-05-14T16:22:41.604Z,16.90
2023-05-14T16:25:10.055Z,17.10
2023-05-14T16:27:38.314Z,17.30
2023-05-14T16:30:08.202Z,17.60
2023-05-14T16:32:36.352Z,17.80
2023-05-14T16:35:04.774Z,17.60
2023-05-14T16:37:35.046Z,17.50
2023-05-14T16:40:03.749Z,17.30
2023-05-14T16:42:32.038Z,17.40
2023-05-14T16:45:00.360Z,17.60
2023-05-14T16:47:28.423Z,17.80
2023-05-14T16:49:56.575Z,18.00
2023-05-14T16:52:24.767Z,18.40
2023-05-14T16:54:54.455Z,18.70
2023-05-14T16:57:22.677Z,18.70
2023-05-14T16:59:51.013Z,18.80
2023-05-14T17:02:21.509Z,19.00
2023-05-14T17:04:49.834Z,19.60
2023-05-14T17:07:21.402Z,20.00
2023-05-14T17:09:51.560Z,19.60
2023-05-14T17:12:21.507Z,19.00
2023-05-14T17:14:52.458Z,18.40
2023-05-14T17:17:20.811Z,17.90
2023-05-14T17:19:51.180Z,17.60
2023-05-14T17:22:19.380Z,17.40
2023-05-14T17:24:47.526Z,17.30
2023-05-14T17:27:16.667Z,17.10
2023-05-14T17:29:46.544Z,17.00
2023-05-14T17:32:14.859Z,16.90
2023-05-14T17:34:43.096Z,16.80
2023-05-14T17:37:11.290Z,16.70
2023-05-14T17:39:39.437Z,16.70
2023-05-14T17:42:09.044Z,16.60
2023-05-14T17:44:37.292Z,16.60
2023-05-14T17:47:08.399Z,16.50
2023-05-14T17:49:36.662Z,16.50
2023-05-14T17:52:04.958Z,16.50
2023-05-14T17:54:32.935Z,16.40
2023-05-14T17:57:01.046Z,16.40
2023-05-14T17:59:29.036Z,16.30
2023-05-14T18:01:57.054Z,16.20
2023-05-14T18:04:26.389Z,16.10
2023-05-14T18:06:54.502Z,16.00
2023-05-14T18:09:22.552Z,16.00
2023-05-14T18:11:50.676Z,16.00
2023-05-14T18:14:18.986Z,15.90
2023-05-14T18:16:47.211Z,15.80
2023-05-14T18:19:15.670Z,15.80
2023-05-14T18:21:46.614Z,15.70
2023-05-14T18:24:14.876Z,15.60
2023-05-14T18:26:43.041Z,15.60
2023-05-14T18:29:13.828Z,15.50
2023-05-14T18:31:41.942Z,15.50
2023-05-14T18:34:10.074Z,15.30
2023-05-14T18:36:38.516Z,15.10
2023-05-14T18:39:10.880Z,14.90
2023-05-14T18:41:39.044Z,14.90
2023-05-14T18:44:07.139Z,14.70
2023-05-14T18:46:35.543Z,14.70
2023-05-14T18:49:03.780Z,14.80
2023-05-14T18:51:31.980Z,14.70
2023-05-14T18:54:00.384Z,14.60
2023-05-14T18:56:30.147Z,14.50
2023-05-14T18:58:58.244Z,14.40
2023-05-14T19:01:26.451Z,14.20
2023-05-14T19:03:54.739Z,14.00
2023-05-14T19:06:23.004Z,14.00
2023-05-14T19:08:51.692Z,13.90
2023-05-14T19:11:19.794Z,14.00
2023-05-14T19:13:49.541Z,13.80
2023-05-14T19:16:17.742Z,13.80
2023-05-14T19:18:45.955Z,13.60
2023-05-14T19:21:15.248Z,13.50
2023-05-14T19:23:43.368Z,13.40
2023-05-14T19:26:11.555Z,13.30
2023-05-14T19:28:39.727Z,13.40
2023-05-14T19:31:09.348Z,13.40
2023-05-14T19:33:37.468Z,13.30
2023-05-14T19:36:06.393Z,13.20
2023-05-14T19:38:34.589Z,13.20
2023-05-14T19:41:02.701Z,13.10
2023-05-14T19:43:30.853Z,13.10
2023-05-14T19:46:01.122Z,13.20
2023-05-14T19:48:31.320Z,13.30
2023-05-14T19:50:59.539Z,13.50
2023-05-14T19:53:29.814Z,13.60
2023-05-14T19:55:58.438Z,13.90
2023-05-14T19:58:27.143Z,13.90
2023-05-14T20:00:57.583Z,14.00
2023-05-14T20:03:26.578Z,14.00
2023-05-14T20:05:56.644Z,14.10
2023-05-14T20:08:24.929Z,14.10
2023-05-14T20:10:53.108Z,14.10
2023-05-14T20:13:23.113Z,14.00
2023-05-14T20:15:52.603Z,13.80
2023-05-14T20:18:20.764Z,13.60
2023-05-14T20:20:48.998Z,13.30
2023-05-14T20:23:18.482Z,13.30
2023-05-14T20:25:47.574Z,13.10
2023-05-14T20:28:15.660Z,12.90
2023-05-14T20:30:43.938Z,12.80
2023-05-14T20:33:13.368Z,12.80
2023-05-14T20:35:43.712Z,12.70
2023-05-14T20:38:12.613Z,12.60
2023-05-14T20:40:42.110Z,12.50
2023-05-14T20:43:10.176Z,12.40
2023-05-14T20:45:38.221Z,12.30
2023-05-14T20:48:09.957Z,12.30
2023-05-14T20:50:38.355Z,12.20
2023-05-14T20:53:07.140Z,12.10
2023-05-14T20:55:35.326Z,12.10
2023-05-14T20:58:04.791Z,12.00
2023-05-14T21:00:33.112Z,12.10
2023-05-14T21:03:01.273Z,12.10
2023-05-14T21:05:29.640Z,12.00
2023-05-14T21:07:57.622Z,11.90
2023-05-14T21:10:26.503Z,11.90
2023-05-14T21:12:54.712Z,11.90
2023-05-14T21:15:24.557Z,12.00
2023-05-14T21:17:52.740Z,12.00
2023-05-14T21:20:20.939Z,12.00
2023-05-14T21:22:49.155Z,11.90
2023-05-14T21:25:17.533Z,11.80
2023-05-14T21:27:45.986Z,11.70
2023-05-14T21:30:14.948Z,11.60
2023-05-14T21:32:44.459Z,11.60
2023-05-14T21:35:12.648Z,11.70
2023-05-14T21:37:40.874Z,11.60
2023-05-14T21:40:12.233Z,11.60
2023-05-14T21:42:40.705Z,11.50
2023-05-14T21:45:09.516Z,11.50
2023-05-14T21:47:38.211Z,11.50
2023-05-14T21:50:08.735Z,11.50
2023-05-14T21:52:37.870Z,11.60
2023-05-14T21:55:06.679Z,11.60
2023-05-14T21:57:34.846Z,11.40
2023-05-14T22:00:03.504Z,11.20
2023-05-14T22:02:32.068Z,11.20
2023-05-14T22:05:00.164Z,11.20
2023-05-14T22:07:29.607Z,11.20
2023-05-14T22:09:57.613Z,11.20
2023-05-14T22:12:26.131Z,11.30
2023-05-14T22:14:54.179Z,11.20
2023-05-14T22:17:22.580Z,11.20
2023-05-14T22:19:50.674Z,11.20
2023-05-14T22:22:18.669Z,11.20
2023-05-14T22:24:48.037Z,11.10
2023-05-14T22:27:16.025Z,11.20
2023-05-14T22:29:44.051Z,11.20
2023-05-14T22:32:12.120Z,11.10
2023-05-14T22:34:40.111Z,11.10
2023-05-14T22:37:08.092Z,11.20
2023-05-14T22:39:36.332Z,11.20
2023-05-14T22:42:06.387Z,11.10
2023-05-14T22:44:35.421Z,11.00
2023-05-14T22:47:04.651Z,10.90
2023-05-14T22:49:32.679Z,10.80
2023-05-14T22:52:00.690Z,10.90
2023-05-14T22:54:28.699Z,10.80
2023-05-14T22:56:57.013Z,10.70
2023-05-14T22:59:26.376Z,10.60
2023-05-14T23:01:54.350Z,10.50
2023-05-14T23:04:22.451Z,10.50
2023-05-14T23:06:50.587Z,10.50
2023-05-14T23:09:18.914Z,10.50
2023-05-14T23:11:47.192Z,10.50
2023-05-14T23:14:15.220Z,10.60
2023-05-14T23:16:44.714Z,11.10
2023-05-14T23:19:13.003Z,10.90
2023-05-14T23:21:41.144Z,10.80
2023-05-14T23:24:09.539Z,10.70
2023-05-14T23:26:37.612Z,10.70
2023-05-14T23:29:05.981Z,10.60
2023-05-14T23:31:34.120Z,10.50
2023-05-14T23:34:03.484Z,10.40
2023-05-14T23:36:32.577Z,10.20
2023-05-14T23:39:00.900Z,10.10
2023-05-14T23:41:28.901Z,10.00
2023-05-14T23:43:56.937Z,10.00
2023-05-14T23:46:25.016Z,9.90
2023-05-14T23:48:56.938Z,9.90
2023-05-14T23:51:27.882Z,9.80
2023-05-14T23:53:58.320Z,10.10
2023-05-14T23:56:27.439Z,10.30
2023-05-14T23:58:55.601Z,10.20
